createdAt,value
2022-12-04T00:04:29.714Z,81.50
2022-12-04T00:09:34.534Z,81.50
2022-12-04T00:15:00.880Z,80.90
2022-12-04T00:20:04.217Z,80.70
2022-12-04T00:25:08.791Z,80.40
2022-12-04T00:30:13.974Z,80.20
2022-12-04T00:35:17.594Z,80.30
2022-12-04T00:40:21.010Z,80.20
2022-12-04T00:45:26.598Z,80.20
2022-12-04T00:50:31.225Z,80.00
2022-12-04T00:55:35.334Z,79.80
2022-12-04T01:00:43.291Z,79.60
2022-12-04T01:05:48.196Z,79.50
2022-12-04T01:10:52.620Z,79.40
2022-12-04T01:15:58.201Z,79.20
2022-12-04T01:21:02.929Z,78.90
2022-12-04T01:26:08.047Z,78.80
2022-12-04T01:31:19.171Z,78.80
2022-12-04T01:36:28.480Z,78.70
2022-12-04T01:41:33.883Z,78.30
2022-12-04T01:46:39.303Z,77.90
2022-12-04T01:51:49.423Z,77.80
2022-12-04T01:56:59.044Z,77.50
2022-12-04T02:02:09.021Z,77.30
2022-12-04T02:07:13.664Z,76.80
2022-12-04T02:12:20.878Z,76.90
2022-12-04T02:17:46.450Z,77.00
2022-12-04T02:23:12.080Z,76.80
2022-12-04T02:28:28.208Z,76.70
2022-12-04T02:33:58.506Z,76.50
2022-12-04T02:39:28.892Z,76.60
2022-12-04T02:44:43.419Z,76.70
2022-12-04T02:50:16.603Z,76.50
2022-12-04T02:55:26.777Z,76.70
2022-12-04T03:00:32.880Z,77.40
2022-12-04T03:05:44.902Z,77.40
2022-12-04T03:10:56.430Z,77.30
2022-12-04T03:16:00.994Z,77.40
2022-12-04T03:21:29.253Z,77.70
2022-12-04T03:26:50.726Z,78.10
2022-12-04T03:32:23.424Z,78.50
2022-12-04T03:37:43.939Z,78.90
2022-12-04T03:43:25.016Z,79.10
2022-12-04T03:48:40.978Z,79.10
2022-12-04T03:53:53.662Z,79.90
2022-12-04T03:59:04.563Z,80.00
2022-12-04T04:04:14.277Z,80.90
2022-12-04T04:09:23.961Z,81.20
2022-12-04T04:14:54.051Z,81.30
2022-12-04T04:20:22.984Z,81.30
2022-12-04T04:25:29.703Z,81.30
2022-12-04T04:30:36.008Z,81.40
2022-12-04T04:35:55.745Z,81.70
2022-12-04T04:41:00.203Z,81.60
2022-12-04T04:46:17.014Z,81.60
2022-12-04T04:51:21.936Z,81.90
2022-12-04T04:56:26.573Z,81.90
2022-12-04T05:01:31.243Z,82.10
2022-12-04T05:06:36.310Z,82.10
2022-12-04T05:11:40.668Z,82.20
2022-12-04T05:16:44.808Z,82.30
2022-12-04T05:21:49.297Z,82.30
2022-12-04T05:26:53.642Z,82.50
2022-12-04T05:31:57.925Z,83.30
2022-12-04T05:37:04.023Z,83.20
2022-12-04T05:42:08.740Z,83.60
2022-12-04T05:47:12.316Z,83.80
2022-12-04T05:52:17.242Z,84.40
2022-12-04T05:57:25.340Z,84.30
2022-12-04T06:02:30.190Z,85.30
2022-12-04T06:07:34.909Z,85.00
2022-12-04T06:12:39.378Z,85.40
2022-12-04T06:17:44.722Z,86.00
2022-12-04T06:22:49.134Z,85.60
2022-12-04T06:27:54.373Z,85.90
2022-12-04T06:32:59.023Z,85.70
2022-12-04T06:38:03.525Z,86.10
2022-12-04T06:43:30.586Z,85.90
2022-12-04T06:48:36.794Z,86.00
2022-12-04T06:53:42.234Z,85.80
2022-12-04T06:58:47.602Z,85.90
2022-12-04T07:03:52.786Z,86.10
2022-12-04T07:09:02.119Z,86.30
2022-12-04T07:14:06.807Z,86.20
2022-12-04T07:19:16.610Z,86.50
2022-12-04T07:24:21.278Z,86.60
2022-12-04T07:29:25.197Z,86.80
2022-12-04T07:34:30.557Z,86.60
2022-12-04T07:39:34.820Z,86.60
2022-12-04T07:44:39.349Z,86.70
2022-12-04T07:49:44.877Z,86.70
2022-12-04T07:54:49.258Z,86.60
2022-12-04T07:59:54.272Z,86.70
2022-12-04T08:04:58.829Z,86.70
2022-12-04T08:10:02.404Z,86.60
2022-12-04T08:15:08.090Z,86.20
2022-12-04T08:20:13.823Z,86.20
2022-12-04T08:25:19.179Z,85.90
2022-12-04T08:30:25.105Z,85.00
2022-12-04T08:35:29.143Z,84.40
2022-12-04T08:40:37.924Z,83.50
2022-12-04T08:45:41.886Z,83.90
2022-12-04T08:50:46.251Z,83.90
2022-12-04T08:55:51.546Z,83.80
2022-12-04T09:00:57.081Z,83.60
2022-12-04T09:06:02.987Z,83.90
2022-12-04T09:11:13.324Z,84.20
2022-12-04T09:16:21.189Z,83.80
2022-12-04T09:21:26.289Z,83.70
2022-12-04T09:26:32.994Z,83.70
2022-12-04T09:31:39.252Z,83.70
2022-12-04T09:36:43.880Z,83.80
2022-12-04T09:41:56.448Z,83.80
2022-12-04T09:47:28.863Z,83.50
2022-12-04T09:52:59.452Z,83.20
2022-12-04T09:58:07.667Z,83.00
2022-12-04T10:03:22.270Z,82.80
2022-12-04T10:08:39.078Z,82.60
2022-12-04T10:14:15.094Z,83.00
2022-12-04T10:19:30.906Z,82.40
2022-12-04T10:24:43.931Z,82.40
2022-12-04T10:29:53.657Z,82.40
2022-12-04T10:35:06.764Z,82.40
2022-12-04T10:40:22.373Z,82.30
2022-12-04T10:45:27.942Z,82.40
2022-12-04T10:50:33.369Z,82.40
2022-12-04T10:55:38.830Z,82.70
2022-12-04T11:00:46.174Z,82.40
2022-12-04T11:06:00.677Z,82.40
2022-12-04T11:11:11.783Z,82.60
2022-12-04T11:16:39.830Z,82.30
2022-12-04T11:21:45.159Z,82.00
2022-12-04T11:26:50.469Z,82.00
2022-12-04T11:32:01.450Z,81.80
2022-12-04T11:37:45.367Z,81.90
2022-12-04T11:43:13.377Z,81.80
2022-12-04T11:48:19.156Z,81.50
2022-12-04T11:53:36.328Z,81.50
2022-12-04T11:58:59.539Z,81.40
2022-12-04T12:04:15.594Z,81.70
2022-12-04T12:09:53.057Z,81.70
2022-12-04T12:15:37.865Z,82.00
2022-12-04T12:21:11.700Z,82.20
2022-12-04T12:26:18.005Z,82.50
2022-12-04T12:31:51.705Z,82.80
2022-12-04T12:37:01.062Z,83.00
2022-12-04T12:42:11.823Z,83.30
2022-12-04T12:47:23.099Z,83.50
2022-12-04T12:52:49.880Z,83.80
2022-12-04T12:58:29.935Z,83.80
2022-12-04T13:03:40.400Z,83.80
2022-12-04T13:09:06.010Z,83.90
2022-12-04T13:14:14.078Z,84.10
2022-12-04T13:19:30.892Z,84.10
2022-12-04T13:24:35.024Z,84.40
2022-12-04T13:29:56.827Z,84.50
2022-12-04T13:35:21.035Z,84.80
2022-12-04T13:40:29.607Z,84.80
2022-12-04T13:45:34.771Z,84.90
2022-12-04T13:50:41.564Z,85.00
2022-12-04T13:55:56.980Z,85.00
2022-12-04T14:01:24.943Z,85.10
2022-12-04T14:06:42.787Z,84.50
2022-12-04T14:11:50.435Z,84.40
2022-12-04T14:16:57.717Z,84.60
2022-12-04T14:22:03.576Z,84.60
2022-12-04T14:27:44.983Z,84.50
2022-12-04T14:32:53.219Z,84.40
2022-12-04T14:38:08.677Z,84.60
2022-12-04T14:43:41.348Z,84.60
2022-12-04T14:49:36.641Z,84.60
2022-12-04T14:55:02.031Z,84.60
2022-12-04T15:00:19.803Z,84.70
2022-12-04T15:05:28.627Z,84.90
2022-12-04T15:10:52.673Z,84.90
2022-12-04T15:16:08.660Z,85.00
2022-12-04T15:21:13.046Z,85.00
2022-12-04T15:26:23.311Z,85.00
2022-12-04T15:31:48.637Z,85.00
2022-12-04T15:37:14.376Z,85.10
2022-12-04T15:42:25.472Z,85.00
2022-12-04T15:47:58.402Z,84.90
2022-12-04T15:53:14.694Z,84.90
2022-12-04T15:58:21.089Z,84.90
